Time;durP1;ratioP1;P1;durP2;ratioP2;P2;SDS_P1;SDS_P2;PMS_P1;PMS_P2;Temp;Humidity;BMP_temperature;BMP_pressure;BME280_temperature;BME280_humidity;BME280_pressure;Samples;Min_cycle;Max_cycle;Signal;HPM_P1;HPM_P2
2023/12/24 00:01:43;;;;;;;779.75;727.78;;;8.30;99.90;;;;;;12314764;28;20051;-36
2023/12/24 00:07:45;;;;;;;795.35;742.80;;;8.30;99.90;;;;;;12325723;28;20050;-36
2023/12/24 00:13:46;;;;;;;792.20;739.42;;;8.30;99.90;;;;;;12330659;28;20126;-37
2023/12/24 00:19:48;;;;;;;769.72;719.53;;;8.30;99.90;;;;;;12327004;28;20076;-36
2023/12/24 00:25:50;;;;;;;780.47;729.25;;;8.20;99.90;;;;;;12327546;28;20058;-36
2023/12/24 00:31:52;;;;;;;775.40;724.25;;;8.20;99.90;;;;;;12323436;28;20082;-36
2023/12/24 00:37:58;;;;;;;778.50;727.50;;;8.20;99.90;;;;;;12333260;28;20077;-36
2023/12/24 00:44:00;;;;;;;783.10;731.17;;;8.20;99.90;;;;;;12337810;28;20399;-36
2023/12/24 00:50:02;;;;;;;779.30;728.35;;;8.20;99.90;;;;;;12351924;28;20043;-37
2023/12/24 00:56:05;;;;;;;761.25;711.53;;;8.00;99.90;;;;;;12329788;28;20538;-36
2023/12/24 01:02:07;;;;;;;752.33;703.58;;;8.10;99.90;;;;;;12325280;28;20059;-36
2023/12/24 01:08:09;;;;;;;747.25;699.00;;;8.10;99.90;;;;;;12314767;28;20051;-36
2023/12/24 01:14:11;;;;;;;742.17;694.10;;;8.10;99.90;;;;;;12338635;28;20081;-36
2023/12/24 01:20:16;;;;;;;746.65;698.15;;;8.20;99.90;;;;;;12326829;28;20099;-36
2023/12/24 01:26:18;;;;;;;748.22;699.97;;;8.20;99.90;;;;;;12316883;28;20054;-36
2023/12/24 01:32:20;;;;;;;738.92;691.28;;;8.20;99.90;;;;;;12326378;28;20049;-36
2023/12/24 01:38:22;;;;;;;734.53;687.47;;;8.20;99.90;;;;;;12325250;28;20071;-36
2023/12/24 01:44:24;;;;;;;727.00;680.30;;;8.20;99.90;;;;;;12327893;28;20103;-36
2023/12/24 01:50:26;;;;;;;702.03;657.58;;;8.20;99.90;;;;;;12322999;28;20108;-36
2023/12/24 01:56:30;;;;;;;661.33;620.45;;;8.20;99.90;;;;;;12323138;28;20125;-36
2023/12/24 02:02:32;;;;;;;658.65;617.95;;;8.20;99.90;;;;;;12329540;28;20051;-36
2023/12/24 02:08:36;;;;;;;668.55;626.90;;;8.30;99.90;;;;;;12349817;28;20810;-36
2023/12/24 02:14:39;;;;;;;647.72;607.97;;;8.30;99.90;;;;;;12332538;28;20399;-36
2023/12/24 02:20:41;;;;;;;645.13;605.78;;;8.40;99.90;;;;;;12331613;28;20046;-36
2023/12/24 02:26:51;;;;;;;620.13;582.45;;;8.30;99.90;;;;;;12332787;28;20059;-36
2023/12/24 02:32:56;;;;;;;594.80;558.45;;;8.30;99.90;;;;;;12333997;28;20040;-36
2023/12/24 02:38:59;;;;;;;613.70;576.33;;;8.30;99.90;;;;;;12332436;28;20051;-36
2023/12/24 02:45:01;;;;;;;613.22;575.80;;;8.30;99.90;;;;;;12341241;28;20050;-36
2023/12/24 02:51:04;;;;;;;558.58;524.80;;;8.30;99.90;;;;;;12330351;28;20074;-36
2023/12/24 02:57:05;;;;;;;537.03;504.38;;;8.30;99.90;;;;;;12331743;28;20496;-36
2023/12/24 03:03:07;;;;;;;512.25;481.42;;;8.40;99.90;;;;;;12337019;28;20046;-36
2023/12/24 03:09:10;;;;;;;503.73;473.13;;;8.30;99.90;;;;;;12326215;28;20499;-36
2023/12/24 03:15:12;;;;;;;451.73;424.23;;;8.40;99.90;;;;;;12346355;28;20452;-36
2023/12/24 03:21:14;;;;;;;452.67;424.73;;;8.50;99.90;;;;;;12347804;28;20054;-36
2023/12/24 03:27:16;;;;;;;454.98;427.00;;;8.60;99.90;;;;;;12334719;28;20484;-36
2023/12/24 03:33:18;;;;;;;393.83;369.05;;;8.60;99.90;;;;;;12349168;28;20078;-36
2023/12/24 03:39:20;;;;;;;430.73;403.90;;;8.60;99.90;;;;;;12349458;28;20073;-36
2023/12/24 03:45:23;;;;;;;462.75;434.10;;;8.50;99.90;;;;;;12352821;28;20058;-36
2023/12/24 03:51:25;;;;;;;415.33;389.20;;;8.50;99.90;;;;;;12328001;28;20047;-36
2023/12/24 03:57:26;;;;;;;418.65;392.80;;;8.50;99.90;;;;;;12329079;28;20062;-36
2023/12/24 04:03:28;;;;;;;414.17;388.48;;;8.40;99.90;;;;;;12338614;28;20050;-36
2023/12/24 04:09:31;;;;;;;462.98;434.52;;;8.40;99.90;;;;;;12317410;28;20146;-36
2023/12/24 04:15:33;;;;;;;477.23;448.17;;;8.40;99.90;;;;;;12316718;28;20051;-36
2023/12/24 04:21:36;;;;;;;465.40;436.98;;;8.30;99.90;;;;;;12328831;28;20065;-36
2023/12/24 04:27:38;;;;;;;487.90;458.02;;;8.30;99.90;;;;;;12340586;28;20085;-36
2023/12/24 04:33:39;;;;;;;480.10;450.98;;;8.30;99.90;;;;;;12326084;28;20062;-36
2023/12/24 04:39:41;;;;;;;470.50;441.85;;;8.30;99.90;;;;;;12322662;28;20062;-36
2023/12/24 04:45:43;;;;;;;452.33;424.70;;;8.20;99.90;;;;;;12323005;28;20435;-36
2023/12/24 04:51:45;;;;;;;455.23;427.35;;;8.20;99.90;;;;;;12319705;28;20097;-36
2023/12/24 04:57:48;;;;;;;415.33;389.67;;;8.20;99.90;;;;;;12335133;28;20531;-36
2023/12/24 05:03:50;;;;;;;480.85;451.42;;;8.20;99.90;;;;;;12323586;28;20059;-36
2023/12/24 05:09:51;;;;;;;415.80;389.98;;;8.20;99.90;;;;;;12331539;28;20058;-36
2023/12/24 05:15:53;;;;;;;375.08;351.85;;;8.20;99.90;;;;;;12354631;28;20055;-35
2023/12/24 05:21:55;;;;;;;412.98;387.63;;;8.30;99.90;;;;;;12316869;28;20074;-36
2023/12/24 05:27:57;;;;;;;437.35;410.65;;;8.20;99.90;;;;;;12319479;28;20435;-36
2023/12/24 05:33:59;;;;;;;501.50;470.98;;;8.30;99.90;;;;;;12346547;28;20058;-36
2023/12/24 05:40:01;;;;;;;531.45;499.33;;;8.30;99.90;;;;;;12323882;28;20081;-36
2023/12/24 05:46:04;;;;;;;530.75;498.88;;;8.30;99.90;;;;;;12330767;28;20054;-36
2023/12/24 05:52:06;;;;;;;632.20;593.92;;;8.30;99.90;;;;;;12324719;28;20047;-36
2023/12/24 05:58:08;;;;;;;568.60;534.55;;;8.40;99.90;;;;;;12330629;28;20055;-36
2023/12/24 06:04:10;;;;;;;599.00;563.22;;;8.40;99.90;;;;;;12318660;28;20472;-36
2023/12/24 06:10:12;;;;;;;647.42;607.90;;;8.50;99.90;;;;;;12325433;28;20047;-36
2023/12/24 06:16:13;;;;;;;612.85;575.90;;;8.50;99.90;;;;;;12326848;28;20520;-36
2023/12/24 06:22:15;;;;;;;617.17;580.03;;;8.50;99.90;;;;;;12337677;28;20517;-36
2023/12/24 06:28:17;;;;;;;618.25;581.22;;;8.60;99.90;;;;;;12320760;28;20043;-36
2023/12/24 06:34:19;;;;;;;599.88;563.92;;;8.70;99.90;;;;;;12323860;28;20066;-36
2023/12/24 06:40:21;;;;;;;618.05;580.65;;;8.60;99.90;;;;;;12328873;28;20055;-36
2023/12/24 06:46:24;;;;;;;627.08;589.25;;;8.70;99.90;;;;;;12329543;28;20070;-35
2023/12/24 06:52:26;;;;;;;670.95;629.83;;;8.80;99.90;;;;;;12327908;28;20097;-36
2023/12/24 06:58:28;;;;;;;639.15;600.20;;;8.80;99.90;;;;;;12332730;28;20055;-36
2023/12/24 07:04:30;;;;;;;597.78;562.17;;;8.90;99.90;;;;;;12329488;28;20051;-36
2023/12/24 07:10:32;;;;;;;603.63;567.72;;;8.90;99.90;;;;;;12335036;28;20193;-36
2023/12/24 07:16:34;;;;;;;617.97;580.92;;;9.00;99.90;;;;;;12325631;28;20066;-36
2023/12/24 07:22:39;;;;;;;616.95;580.00;;;9.00;99.90;;;;;;12316917;28;20059;-36
2023/12/24 07:28:41;;;;;;;601.05;565.08;;;9.00;99.90;;;;;;12323488;28;20047;-36
2023/12/24 07:34:43;;;;;;;611.78;575.25;;;9.00;99.90;;;;;;12324166;28;20050;-36
2023/12/24 07:40:45;;;;;;;608.63;572.40;;;9.00;99.90;;;;;;12327720;28;20086;-36
2023/12/24 07:46:47;;;;;;;592.85;557.90;;;9.10;99.90;;;;;;12315636;28;20047;-36
2023/12/24 07:52:49;;;;;;;597.97;563.13;;;9.10;99.90;;;;;;12331024;28;20454;-36
2023/12/24 07:58:51;;;;;;;580.88;546.95;;;9.10;99.90;;;;;;12320120;28;20043;-36
2023/12/24 08:04:55;;;;;;;575.58;542.30;;;9.10;99.90;;;;;;12331886;28;20111;-37
2023/12/24 08:10:57;;;;;;;530.17;499.47;;;9.20;99.90;;;;;;12322023;28;20058;-36
2023/12/24 08:17:10;;;;;;;560.80;528.25;;;9.20;99.90;;;;;;12320911;28;20334;-36
2023/12/24 08:23:14;;;;;;;580.03;546.28;;;9.20;99.90;;;;;;12327778;28;20517;-36
2023/12/24 08:29:16;;;;;;;582.45;548.50;;;9.30;99.90;;;;;;12326997;28;20403;-37
2023/12/24 08:35:18;;;;;;;583.47;549.10;;;9.30;99.90;;;;;;12339509;28;20422;-36
2023/12/24 08:41:20;;;;;;;553.28;520.45;;;9.30;99.90;;;;;;12350814;28;20085;-36
2023/12/24 08:47:22;;;;;;;524.28;493.75;;;9.30;99.90;;;;;;12329093;28;20109;-36
2023/12/24 08:53:24;;;;;;;534.85;503.30;;;9.40;99.90;;;;;;12328774;28;20513;-36
2023/12/24 08:59:26;;;;;;;543.83;511.95;;;9.50;99.90;;;;;;12328630;28;20318;-36
2023/12/24 09:05:28;;;;;;;569.90;536.58;;;9.50;99.90;;;;;;12328580;28;20050;-36
2023/12/24 09:11:30;;;;;;;546.38;514.63;;;9.50;99.90;;;;;;12322869;28;20521;-36
2023/12/24 09:17:32;;;;;;;556.60;524.10;;;9.50;99.90;;;;;;12332442;28;20119;-36
2023/12/24 09:23:34;;;;;;;616.05;579.33;;;9.60;99.90;;;;;;12328485;28;20074;-36
2023/12/24 09:29:36;;;;;;;625.63;588.85;;;9.60;99.90;;;;;;12324774;28;20055;-36
2023/12/24 09:35:38;;;;;;;623.58;586.97;;;9.60;99.90;;;;;;12336030;28;20042;-36
2023/12/24 09:41:40;;;;;;;593.95;559.42;;;9.70;99.90;;;;;;12333501;28;20057;-36
2023/12/24 09:47:43;;;;;;;564.85;531.45;;;9.70;99.90;;;;;;12324638;28;20047;-35
2023/12/24 09:53:49;;;;;;;552.58;520.30;;;9.80;99.90;;;;;;12324336;28;20046;-36
2023/12/24 09:59:51;;;;;;;578.53;544.72;;;9.80;99.90;;;;;;12320947;28;20055;-36
2023/12/24 10:06:04;;;;;;;606.92;571.15;;;9.80;99.90;;;;;;12329921;28;20043;-36
2023/12/24 10:12:08;;;;;;;556.70;524.42;;;9.90;99.90;;;;;;12327196;28;20090;-36
2023/12/24 10:18:20;;;;;;;617.45;581.25;;;9.90;99.90;;;;;;12313178;28;20063;-36
2023/12/24 10:24:23;;;;;;;613.90;578.17;;;9.80;99.90;;;;;;12332890;28;20137;-37
2023/12/24 10:30:25;;;;;;;582.67;548.85;;;9.80;99.90;;;;;;12324583;28;20539;-36
2023/12/24 10:36:27;;;;;;;570.53;537.60;;;9.90;99.90;;;;;;12332412;28;20129;-36
2023/12/24 10:42:29;;;;;;;528.47;498.35;;;9.80;99.90;;;;;;12321728;28;20436;-36
2023/12/24 10:48:30;;;;;;;544.55;513.15;;;9.80;99.90;;;;;;12320300;28;20514;-36
2023/12/24 10:54:34;;;;;;;534.90;504.02;;;9.90;99.90;;;;;;12320619;28;20054;-37
2023/12/24 11:00:37;;;;;;;522.00;491.20;;;9.90;99.90;;;;;;12333241;28;20099;-36
2023/12/24 11:06:40;;;;;;;456.05;429.73;;;10.00;99.90;;;;;;12331028;28;20314;-36
2023/12/24 11:12:42;;;;;;;501.92;473.33;;;10.00;99.90;;;;;;12343184;28;20439;-36
2023/12/24 11:18:50;;;;;;;539.25;508.42;;;10.00;99.90;;;;;;12336647;28;20414;-36
2023/12/24 11:25:16;;;;;;;530.60;499.88;;;10.10;99.90;;;;;;12325574;28;20051;-36
2023/12/24 11:31:24;;;;;;;501.95;473.13;;;10.10;99.90;;;;;;12340209;28;20142;-36
2023/12/24 11:37:35;;;;;;;537.75;506.75;;;10.10;99.90;;;;;;12329318;28;20090;-36
2023/12/24 11:43:39;;;;;;;504.02;474.92;;;10.00;99.90;;;;;;12326260;28;20403;-36
2023/12/24 11:49:46;;;;;;;560.53;528.47;;;10.00;99.90;;;;;;12337770;28;20047;-36
2023/12/24 11:56:03;;;;;;;640.28;602.90;;;10.00;99.90;;;;;;12335307;28;20043;-36
2023/12/24 12:02:06;;;;;;;718.63;673.92;;;10.00;99.90;;;;;;12334946;28;20082;-36
2023/12/24 12:08:08;;;;;;;724.03;678.78;;;10.10;99.90;;;;;;12330285;28;20043;-36
2023/12/24 12:14:09;;;;;;;699.83;656.80;;;10.10;99.90;;;;;;12322385;28;20054;-36
2023/12/24 12:20:11;;;;;;;693.63;650.85;;;10.10;99.90;;;;;;12327235;28;20112;-36
2023/12/24 12:26:14;;;;;;;645.40;607.17;;;10.20;99.90;;;;;;12329363;28;20061;-36
2023/12/24 12:32:20;;;;;;;596.53;561.50;;;10.20;99.90;;;;;;12339639;28;20512;-36
2023/12/24 12:38:26;;;;;;;631.08;593.78;;;10.30;99.90;;;;;;12345493;28;20051;-36
2023/12/24 12:44:29;;;;;;;573.47;539.85;;;10.30;99.90;;;;;;12326443;28;20051;-36
2023/12/24 12:50:35;;;;;;;577.67;543.72;;;10.30;99.90;;;;;;12338540;28;20509;-36
2023/12/24 12:56:48;;;;;;;530.40;499.58;;;10.30;99.90;;;;;;12327807;28;20039;-36
2023/12/24 13:02:52;;;;;;;570.72;537.60;;;10.40;99.90;;;;;;12334593;28;20100;-37
2023/12/24 13:09:08;;;;;;;547.80;515.60;;;10.40;99.90;;;;;;12319676;28;20058;-36
2023/12/24 13:15:10;;;;;;;589.75;555.03;;;10.40;99.90;;;;;;12329385;28;20556;-36
2023/12/24 13:21:12;;;;;;;541.13;509.08;;;10.50;99.90;;;;;;12320591;28;20065;-36
2023/12/24 13:27:16;;;;;;;564.15;531.22;;;10.50;99.90;;;;;;12329902;28;20057;-36
2023/12/24 13:33:18;;;;;;;568.47;535.20;;;10.50;99.90;;;;;;12325533;28;20427;-36
2023/12/24 13:39:21;;;;;;;540.33;508.88;;;10.60;99.90;;;;;;12326062;28;20107;-36
2023/12/24 13:45:23;;;;;;;522.88;492.48;;;10.60;99.90;;;;;;12318968;28;20403;-36
2023/12/24 13:51:25;;;;;;;573.50;540.38;;;10.60;99.90;;;;;;12318409;28;20083;-35
2023/12/24 13:57:27;;;;;;;531.13;500.10;;;10.60;99.90;;;;;;12321168;28;20415;-35
2023/12/24 14:03:29;;;;;;;545.90;513.95;;;10.70;99.90;;;;;;12321924;28;20059;-36
2023/12/24 14:09:31;;;;;;;538.30;506.98;;;10.60;99.90;;;;;;12325278;28;20081;-36
2023/12/24 14:15:36;;;;;;;538.95;507.55;;;10.60;99.90;;;;;;12349620;28;20088;-36
2023/12/24 14:21:38;;;;;;;569.47;536.28;;;10.60;99.90;;;;;;12323001;28;20054;-36
2023/12/24 14:27:40;;;;;;;549.40;517.38;;;10.60;99.90;;;;;;12327375;28;20533;-36
2023/12/24 14:33:42;;;;;;;498.33;469.35;;;10.60;99.90;;;;;;12346315;28;20129;-36
2023/12/24 14:39:45;;;;;;;485.38;456.95;;;10.60;99.90;;;;;;12349892;28;20410;-36
2023/12/24 14:45:47;;;;;;;517.08;487.02;;;10.60;99.90;;;;;;12316027;28;20046;-36
2023/12/24 14:51:49;;;;;;;472.63;444.92;;;10.70;99.90;;;;;;12323659;28;20062;-36
2023/12/24 14:57:51;;;;;;;438.65;412.73;;;10.60;99.90;;;;;;12315254;28;20071;-36
2023/12/24 15:03:53;;;;;;;470.88;443.15;;;10.70;99.90;;;;;;12327694;28;20410;-36
2023/12/24 15:09:56;;;;;;;478.33;450.30;;;10.60;99.90;;;;;;12338922;28;20042;-36
2023/12/24 15:15:57;;;;;;;373.17;351.08;;;10.60;99.90;;;;;;12327268;28;20142;-36
2023/12/24 15:21:59;;;;;;;413.38;388.80;;;10.70;99.90;;;;;;12327223;28;20047;-36
2023/12/24 15:28:02;;;;;;;428.25;402.60;;;10.70;99.90;;;;;;12323922;28;20097;-36
2023/12/24 15:34:05;;;;;;;508.95;478.73;;;10.70;99.90;;;;;;12324452;28;20047;-36
2023/12/24 15:40:07;;;;;;;528.72;496.92;;;10.80;99.90;;;;;;12333050;28;20046;-36
2023/12/24 15:46:09;;;;;;;536.65;504.63;;;10.80;99.90;;;;;;12316367;28;20054;-36
2023/12/24 15:52:11;;;;;;;665.42;624.88;;;10.90;99.90;;;;;;12328331;28;20051;-36
2023/12/24 15:58:13;;;;;;;710.55;665.35;;;10.90;99.90;;;;;;12325589;28;20431;-36
2023/12/24 16:04:15;;;;;;;762.72;713.28;;;10.90;99.90;;;;;;12330897;28;20051;-36
2023/12/24 16:10:17;;;;;;;771.08;721.47;;;11.00;99.90;;;;;;12331200;28;20098;-36
2023/12/24 16:16:19;;;;;;;785.28;734.45;;;11.00;99.90;;;;;;12312139;28;20062;-36
2023/12/24 16:22:22;;;;;;;774.53;724.28;;;11.00;99.90;;;;;;12318780;28;20047;-36
2023/12/24 16:28:24;;;;;;;749.47;701.72;;;11.00;99.90;;;;;;12348101;28;20468;-36
2023/12/24 16:34:26;;;;;;;749.78;702.13;;;11.10;99.90;;;;;;12330336;28;20377;-36
2023/12/24 16:40:28;;;;;;;770.78;721.92;;;11.10;99.90;;;;;;12332004;28;20047;-36
2023/12/24 16:46:30;;;;;;;772.60;723.70;;;11.10;99.90;;;;;;12332090;28;20495;-36
2023/12/24 16:52:32;;;;;;;769.83;720.35;;;11.20;99.90;;;;;;12325139;28;20165;-36
2023/12/24 16:58:34;;;;;;;775.53;726.10;;;11.20;99.90;;;;;;12315682;28;20046;-36
2023/12/24 17:04:36;;;;;;;758.80;710.17;;;11.20;99.90;;;;;;12327355;28;20504;-36
2023/12/24 17:10:38;;;;;;;769.83;721.22;;;11.20;99.90;;;;;;12326870;28;20055;-36
2023/12/24 17:16:41;;;;;;;770.03;721.28;;;11.10;99.90;;;;;;12352311;28;20043;-36
2023/12/24 17:22:43;;;;;;;764.70;716.40;;;11.00;99.90;;;;;;12321614;28;20051;-36
2023/12/24 17:28:45;;;;;;;735.17;688.63;;;11.10;99.90;;;;;;12336904;28;20051;-36
2023/12/24 17:34:47;;;;;;;737.90;691.15;;;11.00;99.90;;;;;;12324057;28;20074;-36
2023/12/24 17:40:49;;;;;;;753.97;705.40;;;11.10;99.90;;;;;;12330159;28;20061;-36
2023/12/24 17:46:51;;;;;;;767.53;717.92;;;11.10;99.90;;;;;;12320709;28;20065;-36
2023/12/24 17:52:53;;;;;;;770.63;720.63;;;11.20;99.90;;;;;;12329346;28;20502;-36
2023/12/24 17:58:55;;;;;;;781.08;730.35;;;11.10;99.90;;;;;;12316695;28;20617;-37
2023/12/24 18:04:57;;;;;;;772.22;722.05;;;11.20;99.90;;;;;;12323126;28;20066;-36
2023/12/24 18:10:59;;;;;;;780.00;729.28;;;11.30;99.90;;;;;;12330441;28;20047;-37
2023/12/24 18:17:01;;;;;;;798.67;745.72;;;11.20;99.90;;;;;;12346419;28;20051;-36
2023/12/24 18:23:03;;;;;;;785.13;733.17;;;11.30;99.90;;;;;;12330429;28;20055;-36
2023/12/24 18:29:07;;;;;;;780.40;729.65;;;11.30;99.90;;;;;;12327889;28;20043;-36
2023/12/24 18:35:09;;;;;;;;;;;11.40;99.90;;;;;;12326030;28;20051;-36
2023/12/24 18:41:21;;;;;;;764.83;716.70;;;11.50;99.90;;;;;;12315800;28;20367;-36
2023/12/24 18:47:23;;;;;;;757.92;711.17;;;11.60;99.90;;;;;;12316822;28;20396;-36
2023/12/24 18:53:25;;;;;;;707.22;664.38;;;11.60;99.90;;;;;;12328484;28;20539;-36
2023/12/24 18:59:27;;;;;;;714.00;670.13;;;11.80;99.90;;;;;;12325145;28;20055;-36
2023/12/24 19:05:29;;;;;;;708.53;665.03;;;11.70;99.90;;;;;;12334494;28;20137;-36
2023/12/24 19:11:31;;;;;;;669.22;628.53;;;11.80;99.90;;;;;;12325342;28;20108;-36
2023/12/24 19:17:33;;;;;;;564.35;530.35;;;11.80;99.90;;;;;;12314438;28;20063;-37
2023/12/24 19:23:35;;;;;;;578.17;543.20;;;11.80;99.90;;;;;;12326457;28;20054;-36
2023/12/24 19:29:37;;;;;;;540.22;507.27;;;11.80;99.90;;;;;;12336447;28;20463;-36
2023/12/24 19:35:39;;;;;;;477.52;448.20;;;11.80;99.90;;;;;;12320867;28;20054;-37
2023/12/24 19:41:42;;;;;;;389.30;365.55;;;11.90;99.90;;;;;;12319757;28;20100;-36
2023/12/24 19:47:44;;;;;;;369.35;346.20;;;11.90;99.90;;;;;;12329015;28;20503;-36
2023/12/24 19:53:46;;;;;;;367.42;344.55;;;12.00;99.90;;;;;;12328528;28;20044;-36
2023/12/24 19:59:47;;;;;;;374.83;351.15;;;12.00;99.90;;;;;;12329809;28;20058;-36
2023/12/24 20:05:49;;;;;;;329.92;308.92;;;11.90;99.90;;;;;;12313060;28;20059;-37
2023/12/24 20:11:51;;;;;;;335.85;314.42;;;12.00;99.90;;;;;;12353577;28;20046;-36
2023/12/24 20:17:53;;;;;;;328.20;307.40;;;11.90;99.90;;;;;;12331600;28;20086;-36
2023/12/24 20:23:55;;;;;;;310.13;289.95;;;11.90;99.90;;;;;;12329615;28;20053;-36
2023/12/24 20:29:57;;;;;;;334.10;312.90;;;11.90;99.90;;;;;;12333050;28;20092;-36
2023/12/24 20:36:01;;;;;;;294.10;275.30;;;11.90;99.90;;;;;;12329604;28;20043;-36
2023/12/24 20:42:03;;;;;;;267.35;249.88;;;12.00;99.90;;;;;;12335003;28;20526;-36
2023/12/24 20:48:05;;;;;;;243.30;227.23;;;12.00;99.90;;;;;;12322442;28;20050;-36
2023/12/24 20:54:07;;;;;;;264.20;246.77;;;12.00;99.90;;;;;;12328204;28;20086;-36
2023/12/24 21:00:10;;;;;;;246.95;230.65;;;12.00;99.90;;;;;;12315741;28;20112;-36
2023/12/24 21:06:12;;;;;;;229.82;214.50;;;12.00;99.90;;;;;;12323186;28;20061;-36
2023/12/24 21:12:14;;;;;;;235.75;219.85;;;12.00;99.90;;;;;;12327186;28;20046;-36
2023/12/24 21:18:16;;;;;;;250.35;233.77;;;11.90;99.90;;;;;;12331115;28;20090;-36
2023/12/24 21:24:18;;;;;;;273.40;255.15;;;11.90;99.90;;;;;;12323267;28;20081;-36
2023/12/24 21:30:20;;;;;;;220.30;205.95;;;11.80;99.90;;;;;;12327271;28;20061;-36
2023/12/24 21:36:22;;;;;;;269.88;252.52;;;11.80;99.90;;;;;;12337099;28;20419;-36
2023/12/24 21:42:25;;;;;;;245.73;229.68;;;11.70;99.90;;;;;;12331640;28;20059;-36
2023/12/24 21:48:27;;;;;;;189.32;176.60;;;11.70;99.90;;;;;;12323723;28;20043;-36
2023/12/24 21:54:32;;;;;;;183.00;170.63;;;11.80;99.90;;;;;;12324801;28;20074;-36
2023/12/24 22:00:34;;;;;;;191.73;179.10;;;11.80;99.90;;;;;;12326215;28;20058;-36
2023/12/24 22:06:50;;;;;;;224.00;209.25;;;11.90;99.90;;;;;;12331140;28;20104;-36
2023/12/24 22:12:52;;;;;;;255.95;239.30;;;11.90;99.90;;;;;;12328881;28;20047;-36
2023/12/24 22:18:54;;;;;;;245.57;229.73;;;11.80;99.90;;;;;;12328521;28;20059;-36
2023/12/24 22:24:56;;;;;;;246.57;230.63;;;11.80;99.90;;;;;;12330390;28;20570;-36
2023/12/24 22:30:58;;;;;;;260.83;244.18;;;11.80;99.90;;;;;;12319399;28;20126;-36
2023/12/24 22:37:00;;;;;;;263.55;247.00;;;11.80;99.90;;;;;;12338672;28;20518;-36
2023/12/24 22:43:02;;;;;;;236.18;220.95;;;11.80;99.90;;;;;;12332956;28;20051;-36
2023/12/24 22:49:05;;;;;;;221.68;207.15;;;11.80;99.90;;;;;;12328888;28;20047;-36
2023/12/24 22:55:08;;;;;;;241.40;225.63;;;11.70;99.90;;;;;;12347264;28;20065;-36
2023/12/24 23:01:11;;;;;;;275.23;258.13;;;11.70;99.90;;;;;;12325283;28;20495;-36
2023/12/24 23:07:13;;;;;;;237.02;221.82;;;11.80;99.90;;;;;;12327051;28;20085;-36
2023/12/24 23:13:15;;;;;;;212.35;198.43;;;11.70;99.90;;;;;;12336200;28;20463;-35
2023/12/24 23:19:17;;;;;;;218.20;204.18;;;11.80;99.90;;;;;;12354668;28;20059;-36
2023/12/24 23:25:18;;;;;;;238.13;223.00;;;11.80;99.90;;;;;;12325121;28;20058;-35
2023/12/24 23:31:20;;;;;;;229.02;214.02;;;11.70;99.90;;;;;;12320870;28;20164;-36
2023/12/24 23:37:22;;;;;;;207.48;194.07;;;11.80;99.90;;;;;;12337952;28;20499;-36
2023/12/24 23:43:24;;;;;;;244.88;229.27;;;11.70;99.90;;;;;;12331606;28;20085;-36
2023/12/24 23:49:26;;;;;;;256.63;240.57;;;11.70;99.90;;;;;;12334385;28;20046;-36
2023/12/24 23:55:28;;;;;;;255.65;239.68;;;11.70;99.90;;;;;;12332188;28;20050;-35
